Time;durP1;ratioP1;P1;durP2;ratioP2;P2;SDS_P1;SDS_P2;PMS_P1;PMS_P2;Temp;Humidity;BMP_temperature;BMP_pressure;BME280_temperature;BME280_humidity;BME280_pressure;Samples;Min_cycle;Max_cycle;Signal;HPM_P1;HPM_P2
2022/11/13 00:02:10;;;;;;;20.73;10.10;;;6.50;99.90;;;;;;5105506;28;20119;-74
2022/11/13 00:04:35;;;;;;;18.48;10.70;;;6.60;99.90;;;;;;5089870;28;20524;-73
2022/11/13 00:07:01;;;;;;;20.90;8.75;;;6.60;99.90;;;;;;5105128;28;20024;-74
2022/11/13 00:09:27;;;;;;;19.42;8.57;;;6.50;99.90;;;;;;5106036;28;20024;-74
2022/11/13 00:11:52;;;;;;;14.18;8.85;;;6.50;99.90;;;;;;5090051;28;20499;-74
2022/11/13 00:14:18;;;;;;;20.23;9.13;;;6.60;99.90;;;;;;5090106;28;20024;-74
2022/11/13 00:16:44;;;;;;;19.85;9.77;;;6.60;99.90;;;;;;5090384;28;20484;-74
2022/11/13 00:19:09;;;;;;;16.17;9.05;;;6.60;99.90;;;;;;5089033;28;20465;-73
2022/11/13 00:21:35;;;;;;;19.02;8.73;;;6.60;99.90;;;;;;5088003;28;20177;-73
2022/11/13 00:24:01;;;;;;;18.05;8.98;;;6.50;99.90;;;;;;5105380;28;20388;-74
2022/11/13 00:26:28;;;;;;;19.38;9.15;;;6.60;99.90;;;;;;5089587;28;20278;-74
2022/11/13 00:28:57;;;;;;;17.65;10.00;;;6.50;99.90;;;;;;5088267;28;20024;-75
2022/11/13 00:31:23;;;;;;;17.73;8.27;;;6.60;99.90;;;;;;5091758;28;20016;-74
2022/11/13 00:33:50;;;;;;;19.92;9.82;;;6.60;99.90;;;;;;5090338;28;20086;-74
2022/11/13 00:36:21;;;;;;;17.98;8.60;;;6.50;99.90;;;;;;5091374;28;20125;-74
2022/11/13 00:38:46;;;;;;;24.17;10.70;;;6.60;99.90;;;;;;5091688;28;20020;-75
2022/11/13 00:41:13;;;;;;;20.75;9.75;;;6.60;99.90;;;;;;5090479;28;20488;-74
2022/11/13 00:43:38;;;;;;;17.38;9.18;;;6.60;99.90;;;;;;5091493;28;20020;-74
2022/11/13 00:46:05;;;;;;;21.02;9.00;;;6.60;99.90;;;;;;5082513;28;20070;-74
2022/11/13 00:48:31;;;;;;;14.32;7.80;;;6.50;99.90;;;;;;5070124;28;20582;-74
2022/11/13 00:50:56;;;;;;;24.85;9.55;;;6.50;99.90;;;;;;5071224;28;20032;-74
2022/11/13 00:53:22;;;;;;;16.73;8.90;;;6.50;99.90;;;;;;5071214;28;20377;-74
2022/11/13 00:55:48;;;;;;;17.13;7.93;;;6.50;99.90;;;;;;5071312;28;20086;-74
2022/11/13 00:58:15;;;;;;;16.45;7.25;;;6.50;99.90;;;;;;5071304;28;20020;-74
2022/11/13 01:00:42;;;;;;;15.45;8.40;;;6.50;99.90;;;;;;5071060;28;20039;-74
2022/11/13 01:03:08;;;;;;;10.98;7.15;;;6.50;99.90;;;;;;5069611;28;20021;-74
2022/11/13 01:05:39;;;;;;;15.55;7.30;;;6.50;99.90;;;;;;5071146;28;20369;-74
2022/11/13 01:08:06;;;;;;;16.95;8.90;;;6.50;99.90;;;;;;5070936;28;20028;-73
2022/11/13 01:10:33;;;;;;;15.07;7.90;;;6.50;99.90;;;;;;5070137;28;20024;-74
2022/11/13 01:12:59;;;;;;;17.92;7.97;;;6.50;99.90;;;;;;5070287;28;20024;-74
2022/11/13 01:15:25;;;;;;;16.92;7.90;;;6.50;99.90;;;;;;5068623;28;20033;-73
2022/11/13 01:17:54;;;;;;;18.13;8.55;;;6.50;99.90;;;;;;5070318;28;20397;-75
2022/11/13 01:20:22;;;;;;;23.10;11.00;;;9.80;99.90;;;;;;5070808;28;20481;-75
2022/11/13 01:22:47;;;;;;;17.05;8.15;;;6.50;99.90;;;;;;5070678;28;20021;-75
2022/11/13 01:25:13;;;;;;;16.23;7.95;;;6.50;99.90;;;;;;5069453;28;20036;-74
2022/11/13 01:27:39;;;;;;;16.88;8.95;;;6.50;99.90;;;;;;5069953;28;20025;-74
2022/11/13 01:30:05;;;;;;;17.30;7.93;;;6.40;99.90;;;;;;5069109;28;20024;-74
2022/11/13 01:32:31;;;;;;;16.25;7.47;;;6.50;99.90;;;;;;5069900;28;20291;-74
2022/11/13 01:34:56;;;;;;;14.73;7.90;;;6.50;99.90;;;;;;5070203;28;20231;-74
2022/11/13 01:37:22;;;;;;;17.25;8.32;;;6.50;99.90;;;;;;5070560;28;20056;-74
2022/11/13 01:39:48;;;;;;;14.05;8.45;;;6.50;99.90;;;;;;5070423;28;20500;-74
2022/11/13 01:42:14;;;;;;;18.40;9.50;;;6.50;99.90;;;;;;5071979;28;20410;-74
2022/11/13 01:44:55;;;;;;;14.65;9.57;;;6.50;99.90;;;;;;5071081;28;20021;-74
2022/11/13 01:47:22;;;;;;;22.08;9.32;;;6.50;99.90;;;;;;5069999;28;20029;-74
2022/11/13 01:49:51;;;;;;;17.55;8.48;;;6.40;99.90;;;;;;5069032;28;20025;-74
2022/11/13 01:52:24;;;;;;;;;;;6.50;99.90;;;;;;5069575;28;20051;-73
2022/11/13 01:54:56;;;;;;;16.40;8.63;;;6.50;99.90;;;;;;5070304;28;19963;-75
2022/11/13 01:57:22;;;;;;;15.10;8.45;;;6.40;99.90;;;;;;5068887;28;20047;-76
2022/11/13 01:59:51;;;;;;;12.55;7.05;;;6.40;99.90;;;;;;5070224;28;20055;-74
2022/11/13 02:02:17;;;;;;;16.00;8.50;;;6.50;99.90;;;;;;5069964;28;20095;-74
2022/11/13 02:04:44;;;;;;;16.35;7.63;;;6.50;99.90;;;;;;5084181;28;20119;-74
2022/11/13 02:07:15;;;;;;;14.77;6.47;;;6.50;99.90;;;;;;5088643;28;20077;-74
2022/11/13 02:09:47;;;;;;;17.60;7.35;;;6.50;99.90;;;;;;5088779;28;20038;-73
2022/11/13 02:12:15;;;;;;;13.10;5.80;;;6.50;99.90;;;;;;5088423;28;20389;-74
2022/11/13 02:14:45;;;;;;;17.30;6.63;;;6.50;99.90;;;;;;5088454;28;20044;-74
2022/11/13 02:17:17;;;;;;;19.02;8.40;;;6.50;99.90;;;;;;5088687;28;20020;-73
2022/11/13 02:19:50;;;;;;;13.77;6.55;;;6.40;99.90;;;;;;5089309;28;20032;-73
2022/11/13 02:22:31;;;;;;;15.85;6.93;;;6.40;99.90;;;;;;5090002;28;20278;-73
2022/11/13 02:24:59;;;;;;;16.38;7.20;;;6.40;99.90;;;;;;5090092;28;20065;-73
2022/11/13 02:27:54;;;;;;;15.27;7.82;;;6.40;99.90;;;;;;5090012;28;20480;-73
2022/11/13 02:30:27;;;;;;;13.38;6.55;;;6.40;99.90;;;;;;5089040;28;20439;-73
2022/11/13 02:32:55;;;;;;;14.32;8.63;;;6.50;99.90;;;;;;5089497;28;20048;-73
2022/11/13 02:35:30;;;;;;;14.10;6.35;;;6.50;99.90;;;;;;5088107;28;20048;-73
2022/11/13 02:37:57;;;;;;;18.83;7.53;;;6.50;99.90;;;;;;5089828;28;20028;-73
2022/11/13 02:40:23;;;;;;;13.43;5.80;;;6.50;99.90;;;;;;5089739;28;20491;-74
2022/11/13 02:42:49;;;;;;;18.67;7.13;;;6.50;99.90;;;;;;5087981;28;20024;-74
2022/11/13 02:45:15;;;;;;;11.93;6.93;;;6.50;99.90;;;;;;5088115;28;20035;-73
2022/11/13 02:47:41;;;;;;;16.55;7.22;;;6.50;99.90;;;;;;5089420;28;20107;-75
2022/11/13 02:50:09;;;;;;;20.52;9.40;;;6.50;99.90;;;;;;5089836;28;20146;-74
2022/11/13 02:52:35;;;;;;;14.13;7.20;;;6.50;99.90;;;;;;5089753;28;20023;-74
2022/11/13 02:55:00;;;;;;;17.63;7.32;;;6.50;99.90;;;;;;5088438;28;20122;-75
2022/11/13 02:57:26;;;;;;;13.55;7.43;;;6.50;99.90;;;;;;5091273;28;20208;-74
2022/11/13 02:59:52;;;;;;;14.55;7.40;;;6.50;99.90;;;;;;5089712;28;20107;-74
2022/11/13 03:02:18;;;;;;;12.15;6.28;;;;;;;;;;5089611;28;20028;-74
2022/11/13 03:04:45;;;;;;;13.65;7.28;;;6.50;99.90;;;;;;5089337;28;20024;-74
2022/11/13 03:07:12;;;;;;;15.70;7.53;;;6.50;99.90;;;;;;5089471;28;20077;-74
2022/11/13 03:09:38;;;;;;;12.43;5.90;;;6.50;99.90;;;;;;5089550;28;20070;-74
2022/11/13 03:12:04;;;;;;;16.58;6.00;;;6.40;99.90;;;;;;5089493;28;20106;-74
2022/11/13 03:14:30;;;;;;;17.48;7.18;;;6.40;99.90;;;;;;5088379;28;20124;-75
2022/11/13 03:16:56;;;;;;;9.80;6.38;;;6.40;99.90;;;;;;5089758;28;20107;-74
2022/11/13 03:19:22;;;;;;;22.42;7.65;;;6.40;99.90;;;;;;5093270;28;20073;-75
2022/11/13 03:21:47;;;;;;;12.82;7.20;;;6.40;99.90;;;;;;5093496;28;20020;-74
2022/11/13 03:24:13;;;;;;;11.27;7.03;;;6.40;99.90;;;;;;5093518;28;20024;-74
2022/11/13 03:26:38;;;;;;;15.52;7.90;;;6.50;99.90;;;;;;5092190;28;20035;-74
2022/11/13 03:29:04;;;;;;;12.48;6.05;;;6.40;99.90;;;;;;5093519;28;20042;-74
2022/11/13 03:31:30;;;;;;;12.75;6.95;;;6.40;99.90;;;;;;5093671;28;20059;-74
2022/11/13 03:33:56;;;;;;;13.27;7.68;;;6.40;99.90;;;;;;5091860;28;20559;-73
2022/11/13 03:36:21;;;;;;;10.38;6.43;;;6.40;99.90;;;;;;5093127;28;20043;-74
2022/11/13 03:38:47;;;;;;;13.93;7.68;;;6.30;99.90;;;;;;5093048;28;20380;-74
2022/11/13 03:41:16;;;;;;;12.32;5.72;;;6.30;99.90;;;;;;5093078;28;20108;-74
2022/11/13 03:43:41;;;;;;;17.08;7.95;;;6.40;99.90;;;;;;5093040;28;20085;-74
2022/11/13 03:46:08;;;;;;;14.52;6.28;;;6.30;99.90;;;;;;5093066;28;20024;-74
2022/11/13 03:48:33;;;;;;;12.85;7.40;;;6.40;99.90;;;;;;5091655;28;20028;-74
2022/11/13 03:50:59;;;;;;;19.23;7.40;;;6.40;99.90;;;;;;5093251;28;20434;-74
2022/11/13 03:53:25;;;;;;;19.67;7.03;;;6.40;99.90;;;;;;5092838;28;20019;-74
2022/11/13 03:55:51;;;;;;;16.65;7.53;;;6.40;99.90;;;;;;5091337;28;20126;-74
2022/11/13 03:58:16;;;;;;;12.98;6.22;;;6.40;99.90;;;;;;5091465;28;20119;-74
2022/11/13 04:00:43;;;;;;;12.35;7.07;;;6.40;99.90;;;;;;5093296;28;20024;-74
2022/11/13 04:03:09;;;;;;;15.65;7.65;;;6.40;99.90;;;;;;5091031;28;20197;-74
2022/11/13 04:05:35;;;;;;;10.45;6.70;;;6.40;99.90;;;;;;5092962;28;20223;-74
2022/11/13 04:08:00;;;;;;;16.13;6.93;;;6.40;99.90;;;;;;5092668;28;20024;-74
2022/11/13 04:10:26;;;;;;;18.40;8.55;;;6.30;99.90;;;;;;5091313;28;20073;-74
2022/11/13 04:12:52;;;;;;;14.13;8.05;;;6.40;99.90;;;;;;5091586;28;20028;-74
2022/11/13 04:15:18;;;;;;;12.80;6.95;;;6.40;99.90;;;;;;5092878;28;20028;-74
2022/11/13 04:17:43;;;;;;;11.20;6.00;;;6.30;99.90;;;;;;5092113;28;20020;-74
2022/11/13 04:20:10;;;;;;;11.32;6.03;;;6.30;99.90;;;;;;5090934;28;20103;-74
2022/11/13 04:22:36;;;;;;;12.93;7.28;;;6.30;99.90;;;;;;5092253;28;20043;-73
2022/11/13 04:25:01;;;;;;;13.30;7.63;;;6.30;99.90;;;;;;5092233;28;20052;-73
2022/11/13 04:27:27;;;;;;;11.02;6.20;;;6.30;99.90;;;;;;5090982;28;20020;-73
2022/11/13 04:29:53;;;;;;;12.32;6.93;;;6.30;99.90;;;;;;5091879;28;20106;-73
2022/11/13 04:32:18;;;;;;;14.23;6.70;;;6.40;99.90;;;;;;5092245;28;20020;-73
2022/11/13 04:34:44;;;;;;;11.90;6.72;;;6.30;99.90;;;;;;5091834;28;20051;-73
2022/11/13 04:37:09;;;;;;;12.35;7.13;;;6.30;99.90;;;;;;5092227;28;20097;-73
2022/11/13 04:39:35;;;;;;;14.82;6.15;;;6.40;99.90;;;;;;5091823;28;20066;-74
2022/11/13 04:44:45;;;;;;;13.60;6.40;;;6.30;99.90;;;;;;5091921;28;20384;-73
2022/11/13 04:47:10;;;;;;;12.82;6.30;;;6.50;99.90;;;;;;5092031;28;20191;-73
2022/11/13 04:49:36;;;;;;;13.80;6.53;;;6.40;99.90;;;;;;5090441;28;20031;-74
2022/11/13 04:52:02;;;;;;;17.70;6.78;;;6.40;99.90;;;;;;5092178;28;20016;-74
2022/11/13 04:54:27;;;;;;;14.43;7.28;;;6.30;99.90;;;;;;5091738;28;20181;-74
2022/11/13 04:56:53;;;;;;;13.18;6.15;;;6.30;99.90;;;;;;5091379;28;20081;-73
2022/11/13 04:59:19;;;;;;;13.25;6.65;;;6.30;99.90;;;;;;5091421;28;20070;-74
2022/11/13 05:01:44;;;;;;;14.90;6.32;;;6.30;99.90;;;;;;5091545;28;20056;-73
2022/11/13 05:04:14;;;;;;;15.57;5.97;;;6.30;99.90;;;;;;5091266;28;20544;-74
2022/11/13 05:06:40;;;;;;;13.73;6.72;;;6.30;99.90;;;;;;5090395;28;20141;-73
2022/11/13 05:09:06;;;;;;;14.15;7.05;;;6.30;99.90;;;;;;5091862;28;20097;-73
2022/11/13 05:11:31;;;;;;;10.80;5.00;;;6.30;99.90;;;;;;5091332;28;20035;-73
2022/11/13 05:13:57;;;;;;;11.80;5.20;;;6.20;99.90;;;;;;5091306;28;20112;-73
2022/11/13 05:16:23;;;;;;;16.52;7.38;;;6.20;99.90;;;;;;5091450;28;20114;-73
2022/11/13 05:18:49;;;;;;;13.18;7.63;;;6.40;99.90;;;;;;5090973;28;20077;-73
2022/11/13 05:21:14;;;;;;;11.85;6.75;;;6.30;99.90;;;;;;5089838;28;20089;-73
2022/11/13 05:23:40;;;;;;;11.77;6.10;;;6.40;99.90;;;;;;5089997;28;20016;-73
2022/11/13 05:26:09;;;;;;;11.02;5.97;;;6.30;99.90;;;;;;5090279;28;20556;-75
2022/11/13 05:28:35;;;;;;;12.93;5.83;;;6.40;99.90;;;;;;5089790;28;20020;-74
2022/11/13 05:31:09;;;;;;;13.30;6.70;;;6.40;99.90;;;;;;5090934;28;20345;-74
2022/11/13 05:33:36;;;;;;;11.90;5.75;;;6.40;99.90;;;;;;5089127;28;20514;-74
2022/11/13 05:36:04;;;;;;;10.20;5.45;;;6.40;99.90;;;;;;5090620;28;20095;-74
2022/11/13 05:38:30;;;;;;;12.45;6.22;;;6.50;99.90;;;;;;5091055;28;20052;-74
2022/11/13 05:41:08;;;;;;;10.70;5.28;;;6.40;99.90;;;;;;5090162;28;20074;-74
2022/11/13 05:43:34;;;;;;;10.93;5.97;;;6.40;99.90;;;;;;5090913;28;20103;-74
2022/11/13 05:46:05;;;;;;;12.57;4.80;;;6.40;99.90;;;;;;5089692;28;20408;-74
2022/11/13 05:48:32;;;;;;;14.80;6.75;;;6.40;99.90;;;;;;5090663;28;20100;-74
2022/11/13 05:51:06;;;;;;;15.77;6.45;;;6.40;99.90;;;;;;5089299;28;20484;-73
2022/11/13 05:53:34;;;;;;;13.80;6.95;;;6.40;99.90;;;;;;5091118;28;20412;-73
2022/11/13 05:56:06;;;;;;;13.02;7.03;;;6.40;99.90;;;;;;5090650;28;20039;-73
2022/11/13 05:58:32;;;;;;;13.38;5.50;;;6.50;99.90;;;;;;5090440;28;20507;-74
2022/11/13 06:01:16;;;;;;;13.15;7.00;;;6.50;99.90;;;;;;5089454;28;20024;-73
2022/11/13 06:03:43;;;;;;;9.50;5.18;;;6.30;99.90;;;;;;5090762;28;20020;-74
2022/11/13 06:06:11;;;;;;;12.02;7.03;;;6.20;99.90;;;;;;5090480;28;20111;-73
2022/11/13 06:08:37;;;;;;;14.60;7.70;;;6.20;99.90;;;;;;5090168;28;20016;-73
2022/11/13 06:11:07;;;;;;;10.80;5.93;;;6.10;99.90;;;;;;5090567;28;20504;-73
2022/11/13 06:13:33;;;;;;;9.82;5.35;;;6.10;99.90;;;;;;5090618;28;20503;-74
2022/11/13 06:16:05;;;;;;;10.60;5.00;;;6.10;99.90;;;;;;5090560;28;20489;-73
2022/11/13 06:18:31;;;;;;;14.18;7.38;;;6.10;99.90;;;;;;5090036;28;20484;-74
2022/11/13 06:21:01;;;;;;;13.50;6.10;;;6.10;99.90;;;;;;5090316;28;20036;-74
2022/11/13 06:23:27;;;;;;;12.43;6.20;;;6.20;99.90;;;;;;5090254;28;20175;-74
2022/11/13 06:25:59;;;;;;;13.30;5.82;;;6.20;99.90;;;;;;5090600;28;20205;-74
2022/11/13 06:28:25;;;;;;;10.38;4.50;;;6.20;99.90;;;;;;5090353;28;20107;-73
2022/11/13 06:30:50;;;;;;;8.95;5.65;;;6.20;99.90;;;;;;5088619;28;20189;-74
2022/11/13 06:33:16;;;;;;;9.30;6.45;;;6.20;99.90;;;;;;5089897;28;20035;-73
2022/11/13 06:35:42;;;;;;;15.55;7.07;;;6.20;99.90;;;;;;5090213;28;20055;-74
2022/11/13 06:38:07;;;;;;;9.95;4.65;;;6.30;99.90;;;;;;5090126;28;20391;-73
2022/11/13 06:40:33;;;;;;;15.43;7.13;;;6.30;99.90;;;;;;5090086;28;20082;-73
2022/11/13 06:42:58;;;;;;;11.07;5.97;;;6.30;99.90;;;;;;5088481;28;20032;-73
2022/11/13 06:45:24;;;;;;;10.45;5.90;;;6.30;99.90;;;;;;5088453;28;20039;-73
2022/11/13 06:47:50;;;;;;;9.32;5.97;;;6.30;99.90;;;;;;5089470;28;20050;-73
2022/11/13 06:50:15;;;;;;;12.07;5.75;;;6.40;99.90;;;;;;5089934;28;20054;-73
2022/11/13 06:52:41;;;;;;;9.82;4.65;;;6.40;99.90;;;;;;5093769;28;20024;-73
2022/11/13 06:55:07;;;;;;;13.98;6.13;;;6.30;99.90;;;;;;5093896;28;20431;-73
2022/11/13 06:57:33;;;;;;;8.57;4.57;;;6.30;99.90;;;;;;5093984;28;20063;-74
2022/11/13 06:59:58;;;;;;;9.40;4.40;;;6.30;99.90;;;;;;5092853;28;20040;-73
2022/11/13 07:02:24;;;;;;;13.40;6.05;;;6.40;99.90;;;;;;5093532;28;20031;-73
2022/11/13 07:04:49;;;;;;;10.00;5.95;;;6.50;99.90;;;;;;5093906;28;20073;-73
2022/11/13 07:07:15;;;;;;;11.77;4.95;;;6.50;99.90;;;;;;5092581;28;20388;-73
2022/11/13 07:09:40;;;;;;;11.95;5.90;;;6.40;99.90;;;;;;5092609;28;20016;-74
2022/11/13 07:12:06;;;;;;;12.75;5.63;;;6.40;99.90;;;;;;5094220;28;20020;-73
2022/11/13 07:14:32;;;;;;;8.38;5.22;;;6.40;99.90;;;;;;5093993;28;20020;-73
2022/11/13 07:16:57;;;;;;;7.55;5.25;;;6.50;99.90;;;;;;5093621;28;20039;-74
2022/11/13 07:19:23;;;;;;;10.10;4.63;;;6.50;99.90;;;;;;5093127;28;20028;-73
2022/11/13 07:21:49;;;;;;;11.48;6.70;;;6.40;99.90;;;;;;5093652;28;20540;-73
2022/11/13 07:24:14;;;;;;;26.60;10.15;;;6.50;99.90;;;;;;5093546;28;20373;-72
2022/11/13 07:26:40;;;;;;;12.52;7.28;;;6.50;99.90;;;;;;5093575;28;20054;-73
2022/11/13 07:29:05;;;;;;;24.13;11.38;;;6.30;99.90;;;;;;5093514;28;20111;-73
2022/11/13 07:31:31;;;;;;;11.90;6.82;;;6.20;99.90;;;;;;5093624;28;20341;-74
2022/11/13 07:33:57;;;;;;;14.90;6.88;;;6.20;99.90;;;;;;5092921;28;20035;-74
2022/11/13 07:36:22;;;;;;;9.13;6.03;;;6.10;99.90;;;;;;5093183;28;20028;-73
2022/11/13 07:38:48;;;;;;;16.60;5.97;;;6.10;99.90;;;;;;5091685;28;20034;-73
2022/11/13 07:41:14;;;;;;;13.85;5.40;;;6.10;99.90;;;;;;5091795;28;20023;-74
2022/11/13 07:43:39;;;;;;;9.10;5.80;;;6.00;99.90;;;;;;5093083;28;20357;-74
2022/11/13 07:46:05;;;;;;;11.52;5.45;;;5.90;99.90;;;;;;5093341;28;20043;-73
2022/11/13 07:48:31;;;;;;;15.75;6.05;;;5.90;99.90;;;;;;5092389;28;20038;-73
2022/11/13 07:51:01;;;;;;;17.73;6.97;;;5.90;99.90;;;;;;5092940;28;20460;-73
2022/11/13 07:53:27;;;;;;;10.45;6.50;;;5.90;99.90;;;;;;5092859;28;20024;-73
2022/11/13 07:55:52;;;;;;;9.77;6.57;;;5.90;99.90;;;;;;5091498;28;20043;-73
2022/11/13 07:58:18;;;;;;;14.20;6.55;;;5.90;99.90;;;;;;5092846;28;20538;-74
2022/11/13 08:00:44;;;;;;;13.43;6.22;;;5.90;99.90;;;;;;5092881;28;20051;-74
2022/11/13 08:03:15;;;;;;;14.50;5.78;;;5.90;99.90;;;;;;5090404;28;20111;-74
2022/11/13 08:05:42;;;;;;;11.45;5.93;;;5.80;99.90;;;;;;5092952;28;20059;-75
2022/11/13 08:08:08;;;;;;;13.75;5.93;;;;;;;;;;5091305;28;20484;-75
2022/11/13 08:10:34;;;;;;;13.68;5.63;;;5.80;99.90;;;;;;5091525;28;20024;-75
2022/11/13 08:13:06;;;;;;;11.50;6.20;;;5.80;99.90;;;;;;5091520;28;20239;-76
2022/11/13 08:15:32;;;;;;;12.32;5.10;;;5.80;99.90;;;;;;5090331;28;20468;-75
2022/11/13 08:17:59;;;;;;;12.65;7.50;;;5.70;99.90;;;;;;5087848;28;20024;-76
2022/11/13 08:20:27;;;;;;;15.38;6.53;;;5.80;99.90;;;;;;5089594;28;20181;-77
2022/11/13 08:22:56;;;;;;;14.63;7.50;;;5.80;99.90;;;;;;5090730;28;20063;-75
2022/11/13 08:25:22;;;;;;;11.93;6.38;;;5.80;99.90;;;;;;5091957;28;20058;-75
2022/11/13 08:27:47;;;;;;;9.50;4.85;;;5.90;99.90;;;;;;5092182;28;20527;-75
2022/11/13 08:30:13;;;;;;;11.35;6.47;;;6.00;99.90;;;;;;5089686;28;20537;-75
2022/11/13 08:32:39;;;;;;;12.52;6.40;;;6.00;99.90;;;;;;5090431;28;20328;-76
2022/11/13 08:35:05;;;;;;;10.63;6.15;;;6.20;99.90;;;;;;5091923;28;20657;-75
2022/11/13 08:37:32;;;;;;;9.63;5.78;;;6.20;99.90;;;;;;5092000;28;20031;-75
2022/11/13 08:39:58;;;;;;;12.95;4.70;;;6.20;99.90;;;;;;5090370;28;20032;-76
2022/11/13 08:42:23;;;;;;;13.90;6.45;;;6.20;99.90;;;;;;5090421;28;20028;-76
2022/11/13 08:44:49;;;;;;;12.40;7.22;;;6.20;99.90;;;;;;5091769;28;20024;-76
2022/11/13 08:47:15;;;;;;;12.38;5.70;;;6.20;99.90;;;;;;5091516;28;20016;-76
2022/11/13 08:49:40;;;;;;;10.05;5.50;;;6.20;99.90;;;;;;5089389;28;20126;-75
2022/11/13 08:52:06;;;;;;;12.32;6.53;;;6.10;99.90;;;;;;5071572;28;20025;-75
2022/11/13 08:54:32;;;;;;;13.07;7.35;;;6.10;99.90;;;;;;5071046;28;20021;-75
2022/11/13 08:56:57;;;;;;;10.32;7.30;;;6.00;99.90;;;;;;5071268;28;20085;-75
2022/11/13 08:59:23;;;;;;;12.35;5.47;;;6.70;99.90;;;;;;5069980;28;20021;-75
2022/11/13 09:01:49;;;;;;;6.95;5.05;;;6.00;99.90;;;;;;5069924;28;20060;-75
2022/11/13 09:04:15;;;;;;;11.07;5.40;;;6.00;99.90;;;;;;5070818;28;20017;-75
2022/11/13 09:06:41;;;;;;;10.48;5.22;;;6.00;99.90;;;;;;5070991;28;20034;-75
2022/11/13 09:09:06;;;;;;;10.95;6.30;;;6.00;99.90;;;;;;5071445;28;20100;-77
2022/11/13 09:11:32;;;;;;;7.80;5.43;;;6.20;99.90;;;;;;5069630;28;20033;-75
2022/11/13 09:13:59;;;;;;;14.98;5.95;;;6.20;99.90;;;;;;5070652;28;20338;-76
2022/11/13 09:16:24;;;;;;;7.35;3.95;;;6.20;99.90;;;;;;5070008;28;20443;-75
2022/11/13 09:18:51;;;;;;;8.65;5.25;;;6.20;99.90;;;;;;5069264;28;20056;-75
2022/11/13 09:21:17;;;;;;;10.35;5.18;;;6.20;99.90;;;;;;5088411;28;20392;-74
2022/11/13 09:23:42;;;;;;;8.50;5.32;;;6.20;99.90;;;;;;5089988;28;20016;-74
2022/11/13 09:26:08;;;;;;;8.40;4.20;;;6.10;99.90;;;;;;5087769;28;20512;-74
2022/11/13 09:28:34;;;;;;;7.00;4.28;;;6.60;99.90;;;;;;5087733;28;20363;-74
2022/11/13 09:31:03;;;;;;;7.97;5.45;;;6.10;99.90;;;;;;5087386;28;20016;-74
2022/11/13 09:33:29;;;;;;;8.23;4.03;;;6.00;99.90;;;;;;5087485;28;20020;-75
2022/11/13 09:35:54;;;;;;;6.20;3.50;;;6.00;99.90;;;;;;5086529;28;20067;-74
2022/11/13 09:38:22;;;;;;;8.55;5.25;;;6.10;99.90;;;;;;5085980;28;20468;-74
2022/11/13 09:40:55;;;;;;;8.00;4.07;;;6.10;99.90;;;;;;5087432;28;20027;-74
2022/11/13 09:43:33;;;;;;;7.63;3.53;;;6.30;99.90;;;;;;5084319;28;20036;-74
2022/11/13 09:46:03;;;;;;;13.27;6.50;;;6.40;99.90;;;;;;5091199;28;20032;-75
2022/11/13 09:48:42;;;;;;;6.55;3.95;;;6.40;99.90;;;;;;5113885;28;20339;-74
2022/11/13 09:51:26;;;;;;;7.03;4.40;;;6.30;99.90;;;;;;5099191;28;20350;-74
2022/11/13 09:53:52;;;;;;;27.30;12.57;;;6.30;99.90;;;;;;5099226;28;20067;-74
2022/11/13 09:56:26;;;;;;;9.05;4.82;;;6.50;99.90;;;;;;5093375;28;20344;-74
2022/11/13 09:59:18;;;;;;;23.75;9.80;;;6.40;99.90;;;;;;5088648;28;20052;-74
2022/11/13 10:02:09;;;;;;;15.02;6.15;;;6.40;99.90;;;;;;5086742;28;20095;-74
2022/11/13 10:04:38;;;;;;;11.00;3.75;;;6.40;99.90;;;;;;5087385;28;20028;-74
2022/11/13 10:07:28;;;;;;;37.63;14.67;;;6.50;99.90;;;;;;5086711;28;20020;-74
2022/11/13 10:10:22;;;;;;;44.00;18.10;;;6.50;99.90;;;;;;5086946;28;20361;-75
2022/11/13 10:12:52;;;;;;;19.27;9.77;;;6.60;99.90;;;;;;5087216;28;20020;-74
2022/11/13 10:15:18;;;;;;;29.30;11.50;;;6.50;99.90;;;;;;5085166;28;20081;-73
2022/11/13 10:17:55;;;;;;;18.17;7.85;;;6.50;99.90;;;;;;5087105;28;20247;-74
2022/11/13 10:20:56;;;;;;;9.88;4.93;;;6.50;99.90;;;;;;5065668;28;20484;-74
2022/11/13 10:23:36;;;;;;;7.10;4.75;;;6.60;99.90;;;;;;5065209;28;20055;-73
2022/11/13 10:26:15;;;;;;;;;;;6.50;99.90;;;;;;5067587;28;20246;-75
2022/11/13 10:28:41;;;;;;;8.57;4.40;;;6.50;99.90;;;;;;5081315;28;19957;-76
2022/11/13 10:31:11;;;;;;;7.75;3.92;;;6.50;99.90;;;;;;5085937;28;20028;-76
2022/11/13 10:33:36;;;;;;;7.07;5.05;;;6.60;99.90;;;;;;5087109;28;20027;-74
2022/11/13 10:36:18;;;;;;;10.63;4.75;;;6.60;99.90;;;;;;5087172;28;20091;-76
2022/11/13 10:38:57;;;;;;;9.25;5.40;;;6.70;99.90;;;;;;5087073;28;20048;-75
2022/11/13 10:41:22;;;;;;;8.85;3.83;;;6.70;99.90;;;;;;5085646;28;20028;-74
2022/11/13 10:44:15;;;;;;;7.70;4.90;;;6.70;99.90;;;;;;5087461;28;20559;-74
2022/11/13 10:46:40;;;;;;;20.58;5.20;;;6.90;99.90;;;;;;5078572;28;20504;-75
2022/11/13 10:49:20;;;;;;;7.43;4.93;;;6.80;99.90;;;;;;5086698;28;20074;-76
2022/11/13 10:51:57;;;;;;;6.35;3.72;;;6.80;99.90;;;;;;5086970;28;20031;-75
2022/11/13 10:54:31;;;;;;;8.02;4.57;;;6.80;99.90;;;;;;5085380;28;20505;-74
2022/11/13 10:57:02;;;;;;;10.27;5.05;;;6.70;99.90;;;;;;5086706;28;20059;-76
2022/11/13 10:59:42;;;;;;;6.18;3.85;;;6.90;99.90;;;;;;5086276;28;20027;-75
2022/11/13 11:02:19;;;;;;;7.60;3.28;;;7.00;99.90;;;;;;5086854;28;20519;-75
2022/11/13 11:04:45;;;;;;;8.75;3.50;;;7.00;99.90;;;;;;5087230;28;20419;-73
2022/11/13 11:07:15;;;;;;;6.55;4.30;;;7.00;99.90;;;;;;5086615;28;20077;-75
2022/11/13 11:09:45;;;;;;;7.63;3.55;;;7.10;99.90;;;;;;5087249;28;20032;-75
2022/11/13 11:12:21;;;;;;;20.08;6.68;;;7.00;99.90;;;;;;5086599;28;20158;-75
2022/11/13 11:14:55;;;;;;;17.95;7.82;;;7.00;99.90;;;;;;5084792;28;20115;-75
2022/11/13 11:17:48;;;;;;;8.02;3.80;;;7.00;99.90;;;;;;5084864;28;20396;-74
2022/11/13 11:20:39;;;;;;;7.85;3.05;;;6.90;99.90;;;;;;5085667;28;20023;-73
2022/11/13 11:23:14;;;;;;;6.85;3.20;;;6.80;99.90;;;;;;5084870;28;20118;-74
2022/11/13 11:26:00;;;;;;;5.88;2.70;;;6.80;99.90;;;;;;5074332;28;20024;-76
2022/11/13 11:28:35;;;;;;;5.75;3.55;;;6.80;99.90;;;;;;5072700;28;20032;-75
2022/11/13 11:31:27;;;;;;;5.25;2.97;;;6.70;99.90;;;;;;5086784;28;20060;-74
2022/11/13 11:34:39;;;;;;;13.63;5.05;;;6.70;99.90;;;;;;5084612;28;20495;-75
2022/11/13 11:37:11;;;;;;;8.35;4.35;;;6.80;99.90;;;;;;5065199;28;20485;-74
2022/11/13 11:39:46;;;;;;;7.28;4.07;;;6.80;99.90;;;;;;5087742;28;20036;-73
2022/11/13 11:42:45;;;;;;;7.97;4.85;;;6.80;99.90;;;;;;5090011;28;20032;-75
2022/11/13 11:45:38;;;;;;;6.40;3.17;;;6.70;99.90;;;;;;5087382;28;20024;-74
2022/11/13 11:48:12;;;;;;;8.23;2.90;;;6.80;99.90;;;;;;5062721;28;20097;-76
2022/11/13 11:50:51;;;;;;;5.63;3.97;;;6.80;99.90;;;;;;5070517;28;20421;-74
2022/11/13 11:53:47;;;;;;;5.72;3.20;;;6.90;99.90;;;;;;5076927;28;20024;-75
2022/11/13 11:56:42;;;;;;;4.57;3.08;;;7.00;99.90;;;;;;5090956;28;20143;-75
2022/11/13 11:59:10;;;;;;;3.67;3.22;;;6.90;99.90;;;;;;5082891;28;20111;-75
2022/11/13 12:02:04;;;;;;;5.57;3.57;;;7.00;99.90;;;;;;5089264;28;20111;-75
2022/11/13 12:04:45;;;;;;;6.10;2.95;;;7.00;99.90;;;;;;5089038;28;20050;-75
2022/11/13 12:07:37;;;;;;;6.28;3.70;;;6.90;99.90;;;;;;5091019;28;20024;-75
2022/11/13 12:10:09;;;;;;;6.72;3.45;;;7.00;99.90;;;;;;5090139;28;20024;-75
2022/11/13 12:12:57;;;;;;;3.83;3.30;;;7.00;99.90;;;;;;5089722;28;20036;-75
2022/11/13 12:15:41;;;;;;;8.77;2.53;;;6.90;99.90;;;;;;5068347;28;20035;-75
2022/11/13 12:18:16;;;;;;;4.55;2.88;;;6.80;99.90;;;;;;5067591;28;20497;-74
2022/11/13 12:21:03;;;;;;;6.13;3.22;;;6.80;99.90;;;;;;5069167;28;20029;-76
2022/11/13 12:23:29;;;;;;;6.40;2.92;;;6.80;99.90;;;;;;5069503;28;20032;-76
2022/11/13 12:26:14;;;;;;;7.35;3.78;;;6.80;99.90;;;;;;5069347;28;20032;-75
2022/11/13 12:28:43;;;;;;;7.07;4.75;;;6.80;99.90;;;;;;5068989;28;20020;-76
2022/11/13 12:31:28;;;;;;;5.38;3.42;;;6.90;99.90;;;;;;5068749;28;20204;-76
2022/11/13 12:34:03;;;;;;;3.85;3.08;;;6.90;99.90;;;;;;5067877;28;20035;-75
2022/11/13 12:36:29;;;;;;;6.30;3.17;;;7.10;99.90;;;;;;5084527;28;20070;-75
2022/11/13 12:39:22;;;;;;;5.40;3.97;;;7.10;99.90;;;;;;5088290;28;20035;-75
2022/11/13 12:42:16;;;;;;;6.28;3.90;;;7.10;99.90;;;;;;5089025;28;20102;-76
2022/11/13 12:44:54;;;;;;;4.50;2.50;;;7.10;99.90;;;;;;5087813;28;20052;-76
2022/11/13 12:47:19;;;;;;;5.65;3.63;;;7.20;99.90;;;;;;5087831;28;20020;-76
2022/11/13 12:49:45;;;;;;;2.75;2.38;;;7.20;99.90;;;;;;5087081;28;20028;-75
2022/11/13 12:52:19;;;;;;;4.22;2.97;;;7.30;99.90;;;;;;5088929;28;20031;-76
2022/11/13 12:54:45;;;;;;;6.13;3.78;;;7.40;99.90;;;;;;5088662;28;20020;-76
2022/11/13 12:57:14;;;;;;;3.90;2.25;;;7.50;99.90;;;;;;5088052;28;20036;-76
2022/11/13 12:59:44;;;;;;;3.60;3.20;;;7.60;99.90;;;;;;5088762;28;20041;-76
2022/11/13 13:02:20;;;;;;;4.03;3.58;;;7.50;99.90;;;;;;5088223;28;20027;-76
2022/11/13 13:05:03;;;;;;;4.32;3.60;;;7.50;99.90;;;;;;5088578;28;20044;-76
2022/11/13 13:07:48;;;;;;;4.22;2.65;;;7.40;99.90;;;;;;5088968;28;20201;-76